Time,TemperatureF,DewpointF,PressureIn,WindDirection,WindDirectionDegrees,WindSpeedMPH,WindSpeedGustMPH,Humidity,HourlyPrecipIn,Conditions,Clouds,dailyrainin,SolarRadiationWatts/m^2,SoftwareType,DateUTC
2013-03-30 00:22:00,47.6,43.3,30.01,NNE,31,2.0,2.0,85,0.00,,,0.00,0,Wunderground v.1.15,2013-03-29 22:22:00,
2013-03-30 00:42:00,46.9,42.9,30.02,NNE,31,0.0,1.0,86,0.00,,,0.00,0,Wunderground v.1.15,2013-03-29 22:42:00,
2013-03-30 00:52:00,46.8,42.8,30.01,NNW,338,1.0,1.0,86,0.00,,,0.00,0,Wunderground v.1.15,2013-03-29 22:52:00,
2013-03-30 01:02:00,46.7,42.7,30.01,NNW,338,0.0,0.0,86,0.00,,,0.00,0,Wunderground v.1.15,2013-03-29 23:02:00,
2013-03-30 01:22:00,46.4,42.7,30.01,North,360,1.0,1.0,87,0.00,,,0.00,0,Wunderground v.1.15,2013-03-29 23:22:00,
2013-03-30 01:32:00,46.2,42.5,30.01,North,360,0.0,0.0,87,0.00,,,0.00,0,Wunderground v.1.15,2013-03-29 23:32:00,
2013-03-30 01:42:00,46.1,42.7,30.01,North,360,0.0,0.0,88,0.00,,,0.00,0,Wunderground v.1.15,2013-03-29 23:42:00,
2013-03-30 02:02:00,46.1,42.4,30.01,NW,325,3.0,3.0,87,0.00,,,0.00,0,Wunderground v.1.15,2013-03-30 00:02:00,
2013-03-30 02:22:00,45.5,41.9,30.01,North,349,3.0,3.0,87,0.00,,,0.00,0,Wunderground v.1.15,2013-03-30 00:22:00,
2013-03-30 02:32:00,45.0,41.4,30.01,NNW,343,4.0,4.0,87,0.00,,,0.00,0,Wunderground v.1.15,2013-03-30 00:32:00,
2013-03-30 02:42:00,45.1,41.8,30.01,NW,321,2.0,2.0,88,0.00,,,0.00,0,Wunderground v.1.15,2013-03-30 00:42:00,
2013-03-30 02:52:00,45.2,41.9,30.01,NNW,340,3.0,4.0,88,0.00,,,0.00,0,Wunderground v.1.15,2013-03-30 00:52:00,
2013-03-30 03:02:00,45.2,41.6,30.00,NNW,327,3.0,3.0,87,0.00,,,0.00,0,Wunderground v.1.15,2013-03-30 01:02:00,
2013-03-30 03:22:00,45.5,41.9,30.00,NNW,338,2.0,2.0,87,0.00,,,0.00,0,Wunderground v.1.15,2013-03-30 01:22:00,
2013-03-30 03:32:00,45.7,42.1,30.00,NNW,337,2.0,2.0,87,0.00,,,0.00,0,Wunderground v.1.15,2013-03-30 01:32:00,
2013-03-30 03:42:00,45.8,41.9,30.00,NNW,337,2.0,2.0,86,0.00,,,0.00,0,Wunderground v.1.15,2013-03-30 01:42:00,
2013-03-30 03:52:00,45.9,42.2,30.00,NNW,337,0.0,0.0,87,0.00,,,0.00,0,Wunderground v.1.15,2013-03-30 01:52:00,
2013-03-30 04:12:00,45.8,42.2,30.00,NNW,337,0.0,0.0,87,0.00,,,0.00,0,Wunderground v.1.15,2013-03-30 02:12:00,
2013-03-30 04:22:00,45.7,42.1,30.00,NNW,332,1.0,2.0,87,0.00,,,0.00,0,Wunderground v.1.15,2013-03-30 02:22:00,
2013-03-30 05:12:00,45.5,42.2,30.00,WSW,252,1.0,1.0,88,0.00,,,0.00,0,Wunderground v.1.15,2013-03-30 03:12:00,
2013-03-30 05:22:00,45.5,42.2,30.00,SSW,209,1.0,1.0,88,0.00,,,0.00,0,Wunderground v.1.15,2013-03-30 03:22:00,
2013-03-30 05:32:00,45.8,42.4,30.01,SW,232,1.0,2.0,88,0.00,,,0.00,0,Wunderground v.1.15,2013-03-30 03:32:00,
2013-03-30 05:42:00,45.8,42.2,30.00,SW,215,1.0,1.0,87,0.00,,,0.00,0,Wunderground v.1.15,2013-03-30 03:42:00,
2013-03-30 06:22:00,47.6,43.6,30.01,SW,233,2.0,3.0,86,0.00,,,0.00,32,Wunderground v.1.15,2013-03-30 04:22:00,
2013-03-30 06:32:00,47.8,43.5,30.01,SW,219,2.0,4.0,85,0.00,,,0.00,53,Wunderground v.1.15,2013-03-30 04:32:00,
2013-03-30 06:42:00,48.0,43.7,30.01,SW,225,2.0,2.0,85,0.00,,,0.00,123,Wunderground v.1.15,2013-03-30 04:42:00,
2013-03-30 06:52:00,48.5,44.2,30.00,SSW,204,2.0,2.0,85,0.00,,,0.00,120,Wunderground v.1.15,2013-03-30 04:52:00,
2013-03-30 07:12:00,49.1,44.2,30.00,SSW,211,1.0,1.0,83,0.00,,,0.00,72,Wunderground v.1.15,2013-03-30 05:12:00,
2013-03-30 07:22:00,49.5,44.9,30.00,SSW,198,1.0,1.0,84,0.00,,,0.00,144,Wunderground v.1.15,2013-03-30 05:22:00,
2013-03-30 07:32:00,49.9,44.9,29.99,SSW,210,1.0,1.0,83,0.00,,,0.00,118,Wunderground v.1.15,2013-03-30 05:32:00,
2013-03-30 07:42:00,50.3,45.0,29.99,South,169,1.0,1.0,82,0.00,,,0.00,325,Wunderground v.1.15,2013-03-30 05:42:00,
2013-03-30 07:52:00,50.8,45.2,29.98,South,173,1.0,2.0,81,0.00,,,0.00,174,Wunderground v.1.15,2013-03-30 05:52:00,
2013-03-30 08:02:00,51.3,45.7,29.99,South,173,0.0,0.0,81,0.00,,,0.00,135,Wunderground v.1.15,2013-03-30 06:02:00,
2013-03-30 08:12:00,51.9,46.3,29.98,South,184,0.0,0.0,81,0.00,,,0.00,153,Wunderground v.1.15,2013-03-30 06:12:00,
2013-03-30 08:22:00,53.1,46.8,29.98,South,184,0.0,0.0,79,0.00,,,0.00,438,Wunderground v.1.15,2013-03-30 06:22:00,
2013-03-30 08:32:00,54.4,47.3,29.98,South,173,0.0,0.0,77,0.00,,,0.00,482,Wunderground v.1.15,2013-03-30 06:32:00,
2013-03-30 08:42:00,55.8,47.6,29.98,SE,129,1.0,3.0,74,0.00,,,0.00,501,Wunderground v.1.15,2013-03-30 06:42:00,
2013-03-30 08:52:00,56.8,48.2,29.97,ESE,107,1.0,2.0,73,0.00,,,0.00,605,Wunderground v.1.15,2013-03-30 06:52:00,
2013-03-30 09:02:00,57.1,48.2,29.98,South,171,1.0,1.0,72,0.00,,,0.00,186,Wunderground v.1.15,2013-03-30 07:02:00,
2013-03-30 09:12:00,57.5,48.5,29.98,West,272,0.0,1.0,72,0.00,,,0.00,536,Wunderground v.1.15,2013-03-30 07:12:00,
2013-03-30 09:22:00,59.2,49.4,29.98,ENE,63,1.0,1.0,70,0.00,,,0.00,526,Wunderground v.1.15,2013-03-30 07:22:00,
2013-03-30 09:32:00,59.9,49.7,29.98,WSW,255,1.0,1.0,69,0.00,,,0.00,557,Wunderground v.1.15,2013-03-30 07:32:00,
2013-03-30 09:42:00,60.1,49.1,29.98,NNW,339,1.0,1.0,67,0.00,,,0.00,624,Wunderground v.1.15,2013-03-30 07:42:00,
2013-03-30 09:52:00,60.9,49.9,29.98,WSW,238,1.0,1.0,67,0.00,,,0.00,647,Wunderground v.1.15,2013-03-30 07:52:00,
2013-03-30 10:12:00,60.8,49.0,29.97,ESE,110,2.0,3.0,65,0.00,,,0.00,429,Wunderground v.1.15,2013-03-30 08:12:00,
2013-03-30 10:22:00,61.6,49.3,29.97,SE,126,2.0,2.0,64,0.00,,,0.00,459,Wunderground v.1.15,2013-03-30 08:22:00,
2013-03-30 10:32:00,62.5,50.2,29.97,SSW,194,2.0,4.0,64,0.00,,,0.00,538,Wunderground v.1.15,2013-03-30 08:32:00,
2013-03-30 10:42:00,63.8,50.1,29.97,SW,235,2.0,2.0,61,0.00,,,0.00,844,Wunderground v.1.15,2013-03-30 08:42:00,
2013-03-30 10:52:00,64.2,49.1,29.97,WSW,246,2.0,3.0,58,0.00,,,0.00,352,Wunderground v.1.15,2013-03-30 08:52:00,
2013-03-30 11:02:00,64.6,49.5,29.97,WSW,245,2.0,3.0,58,0.00,,,0.00,497,Wunderground v.1.15,2013-03-30 09:02:00,
2013-03-30 11:12:00,64.9,49.8,29.97,SSW,200,3.0,3.0,58,0.00,,,0.00,626,Wunderground v.1.15,2013-03-30 09:12:00,
2013-03-30 11:22:00,65.8,49.2,29.96,SSW,210,2.0,2.0,55,0.00,,,0.00,805,Wunderground v.1.15,2013-03-30 09:22:00,
2013-03-30 11:52:00,68.2,48.3,29.96,West,275,3.0,5.0,49,0.00,,,0.00,768,Wunderground v.1.15,2013-03-30 09:52:00,
2013-03-30 12:02:00,68.6,48.7,29.96,SSW,202,3.0,3.0,49,0.00,,,0.00,737,Wunderground v.1.15,2013-03-30 10:02:00,
2013-03-30 12:22:00,68.6,49.2,29.95,South,186,3.0,5.0,50,0.00,,,0.00,747,Wunderground v.1.15,2013-03-30 10:22:00,
2013-03-30 12:32:00,68.6,49.2,29.94,South,171,4.0,4.0,50,0.00,,,0.00,779,Wunderground v.1.15,2013-03-30 10:32:00,
2013-03-30 12:42:00,66.9,48.2,29.94,South,176,6.0,6.0,51,0.00,,,0.00,698,Wunderground v.1.15,2013-03-30 10:42:00,
2013-03-30 13:02:00,67.3,49.1,29.94,SSW,196,3.0,4.0,52,0.00,,,0.00,436,Wunderground v.1.15,2013-03-30 11:02:00,
2013-03-30 13:12:00,66.4,48.7,29.94,South,174,4.0,5.0,53,0.00,,,0.00,735,Wunderground v.1.15,2013-03-30 11:12:00,
2013-03-30 13:22:00,67.0,48.8,29.93,SSW,201,3.0,3.0,52,0.00,,,0.00,735,Wunderground v.1.15,2013-03-30 11:22:00,
2013-03-30 13:32:00,67.4,48.6,29.93,SSW,202,3.0,3.0,51,0.00,,,0.00,682,Wunderground v.1.15,2013-03-30 11:32:00,
2013-03-30 13:42:00,67.9,49.1,29.93,SW,223,3.0,3.0,51,0.00,,,0.00,715,Wunderground v.1.15,2013-03-30 11:42:00,
2013-03-30 14:02:00,67.9,49.6,29.93,SW,214,2.0,5.0,52,0.00,,,0.00,680,Wunderground v.1.15,2013-03-30 12:02:00,
2013-03-30 14:12:00,67.7,48.9,29.93,SW,227,3.0,6.0,51,0.00,,,0.00,652,Wunderground v.1.15,2013-03-30 12:12:00,
2013-03-30 14:22:00,66.7,49.0,29.92,SSW,200,4.0,4.0,53,0.00,,,0.00,635,Wunderground v.1.15,2013-03-30 12:22:00,
2013-03-30 14:32:00,67.1,49.4,29.92,South,188,3.0,3.0,53,0.00,,,0.00,636,Wunderground v.1.15,2013-03-30 12:32:00,
2013-03-30 14:42:00,67.9,49.1,29.92,SW,228,2.0,4.0,51,0.00,,,0.00,473,Wunderground v.1.15,2013-03-30 12:42:00,
2013-03-30 15:22:00,66.9,49.2,29.90,South,175,2.0,4.0,53,0.00,,,0.00,499,Wunderground v.1.15,2013-03-30 13:22:00,
2013-03-30 15:32:00,66.1,49.0,29.90,South,186,2.0,2.0,54,0.00,,,0.00,454,Wunderground v.1.15,2013-03-30 13:32:00,
2013-03-30 15:42:00,66.4,49.2,29.90,SSW,209,2.0,2.0,54,0.00,,,0.00,360,Wunderground v.1.15,2013-03-30 13:42:00,
2013-03-30 16:02:00,66.4,49.2,29.89,SW,222,2.0,2.0,54,0.00,,,0.00,394,Wunderground v.1.15,2013-03-30 14:02:00,
2013-03-30 16:12:00,66.7,50.0,29.89,SSW,206,1.0,1.0,55,0.00,,,0.00,364,Wunderground v.1.15,2013-03-30 14:12:00,
2013-03-30 16:22:00,67.7,49.9,29.89,SW,225,0.0,2.0,53,0.00,,,0.00,323,Wunderground v.1.15,2013-03-30 14:22:00,
2013-03-30 16:52:00,65.0,48.9,29.88,SW,219,1.0,1.0,56,0.00,,,0.00,102,Wunderground v.1.15,2013-03-30 14:52:00,
2013-03-30 17:02:00,64.2,48.6,29.88,SW,218,1.0,2.0,57,0.00,,,0.00,76,Wunderground v.1.15,2013-03-30 15:02:00,
2013-03-30 17:12:00,62.8,48.3,29.88,WSW,250,2.0,2.0,59,0.00,,,0.00,83,Wunderground v.1.15,2013-03-30 15:12:00,
2013-03-30 17:22:00,62.0,48.4,29.87,WSW,257,3.0,3.0,61,0.00,,,0.00,135,Wunderground v.1.15,2013-03-30 15:22:00,
2013-03-30 17:42:00,62.1,48.5,29.87,WSW,244,3.0,3.0,61,0.00,,,0.00,98,Wunderground v.1.15,2013-03-30 15:42:00,
2013-03-30 17:52:00,62.3,48.7,29.87,WSW,243,2.0,2.0,61,0.00,,,0.00,63,Wunderground v.1.15,2013-03-30 15:52:00,
2013-03-30 18:02:00,61.8,48.2,29.87,SW,223,2.0,2.0,61,0.00,,,0.00,40,Wunderground v.1.15,2013-03-30 16:02:00,
2013-03-30 18:12:00,61.7,48.1,29.88,SSW,206,1.0,1.0,61,0.00,,,0.00,23,Wunderground v.1.15,2013-03-30 16:12:00,
2013-03-30 18:22:00,60.9,47.8,29.88,SSW,213,1.0,1.0,62,0.00,,,0.00,7,Wunderground v.1.15,2013-03-30 16:22:00,
2013-03-30 18:32:00,60.1,47.5,29.88,SW,228,1.0,1.0,63,0.00,,,0.00,0,Wunderground v.1.15,2013-03-30 16:32:00,
2013-03-30 18:42:00,60.0,47.8,29.88,WSW,250,2.0,2.0,64,0.00,,,0.00,0,Wunderground v.1.15,2013-03-30 16:42:00,
2013-03-30 18:52:00,60.0,47.8,29.88,WSW,250,0.0,0.0,64,0.00,,,0.00,0,Wunderground v.1.15,2013-03-30 16:52:00,
2013-03-30 19:02:00,60.2,48.0,29.88,WSW,250,0.0,0.0,64,0.00,,,0.00,0,Wunderground v.1.15,2013-03-30 17:02:00,
2013-03-30 19:22:00,60.6,48.4,29.88,WSW,250,0.0,0.0,64,0.00,,,0.00,0,Wunderground v.1.15,2013-03-30 17:22:00,
2013-03-30 19:32:00,61.0,49.1,29.88,WSW,250,0.0,1.0,65,0.00,,,0.00,0,Wunderground v.1.15,2013-03-30 17:32:00,
2013-03-30 19:42:00,61.9,49.2,29.88,WSW,257,1.0,2.0,63,0.00,,,0.00,0,Wunderground v.1.15,2013-03-30 17:42:00,
2013-03-30 19:52:00,62.4,49.6,29.89,WSW,257,0.0,0.0,63,0.00,,,0.00,0,Wunderground v.1.15,2013-03-30 17:52:00,
2013-03-30 20:12:00,61.6,49.3,29.89,WSW,257,0.0,0.0,64,0.00,,,0.00,0,Wunderground v.1.15,2013-03-30 18:12:00,
2013-03-30 20:32:00,60.6,49.2,29.90,West,259,1.0,1.0,66,0.00,,,0.00,0,Wunderground v.1.15,2013-03-30 18:32:00,
2013-03-30 20:42:00,60.6,49.2,29.90,West,259,0.0,0.0,66,0.00,,,0.00,0,Wunderground v.1.15,2013-03-30 18:42:00,
2013-03-30 20:52:00,60.4,49.4,29.89,West,259,0.0,0.0,67,0.00,,,0.00,0,Wunderground v.1.15,2013-03-30 18:52:00,
2013-03-30 21:12:00,60.7,48.9,29.89,South,190,1.0,1.0,65,0.00,,,0.00,0,Wunderground v.1.15,2013-03-30 19:12:00,
2013-03-30 21:22:00,60.7,48.9,29.89,SW,227,1.0,1.0,65,0.00,,,0.00,0,Wunderground v.1.15,2013-03-30 19:22:00,
2013-03-30 21:32:00,61.0,49.1,29.89,SSW,212,2.0,2.0,65,0.00,,,0.00,0,Wunderground v.1.15,2013-03-30 19:32:00,
2013-03-30 21:42:00,61.1,49.2,29.89,SW,232,2.0,2.0,65,0.00,,,0.00,0,Wunderground v.1.15,2013-03-30 19:42:00,
2013-03-30 22:02:00,61.2,49.3,29.89,SW,217,2.0,2.0,65,0.00,,,0.00,0,Wunderground v.1.15,2013-03-30 20:02:00,
2013-03-30 22:12:00,61.3,49.4,29.89,SW,227,2.0,3.0,65,0.00,,,0.00,0,Wunderground v.1.15,2013-03-30 20:12:00,
2013-03-30 22:22:00,61.5,49.2,29.89,SW,234,2.0,3.0,64,0.00,,,0.00,0,Wunderground v.1.15,2013-03-30 20:22:00,
2013-03-30 22:32:00,61.5,49.2,29.89,SSW,205,2.0,2.0,64,0.00,,,0.00,0,Wunderground v.1.15,2013-03-30 20:32:00,
2013-03-30 23:12:00,63.0,49.8,29.88,SSW,213,3.0,3.0,62,0.00,,,0.00,0,Wunderground v.1.15,2013-03-30 21:12:00,
2013-03-30 23:22:00,63.5,49.8,29.88,South,186,4.0,4.0,61,0.00,,,0.00,0,Wunderground v.1.15,2013-03-30 21:22:00,
2013-03-30 23:32:00,63.7,49.5,29.88,SW,232,3.0,3.0,60,0.00,,,0.00,0,Wunderground v.1.15,2013-03-30 21:32:00,
2013-03-30 23:42:00,63.7,49.5,29.88,SW,221,4.0,5.0,60,0.00,,,0.00,0,Wunderground v.1.15,2013-03-30 21:42:00,
2013-03-30 23:52:00,63.4,49.7,29.88,SW,221,3.0,3.0,61,0.00,,,0.00,0,Wunderground v.1.15,2013-03-30 21:52:00,